• Join FlightAware (Why Join?)
  • Login
  • US Flag 
01:41PM EDT


 

Airport Tracker/Info


-or-


 

Live Flight TrackerFlight Track Log ✈ N450S ✈ 24-Apr-2013 ✈ CYXU - KSKY

Flight Track Log - Related Links

Times and Time Zones

All times are in EDT time to prevent confusion due to time zone crossing. See the N450S flight status page for this flight to view local times or setup timezone preferences in your user account.

Time Position Orientation Groundspeed Altitude Reporting Facility
EDT Latitude Longitude Course Direction KTS MPH feet Rate Location/Type
05:32PM 43.0167 -81.1333 360° North 10 12 900  Level Toronto Center
05:33PM 43.0167 -81.1333 360° North 10 12 800  Descending Toronto Center
05:34PM 43.0167 -81.1333 144° Southeast 20 23 900  Climbing Toronto Center
05:36PM 43.0000 -81.1167 144° Southeast 10 12 900  Level Toronto Center
05:37PM 43.0167 -81.1333 324° Northwest 20 23 900 600 Level Toronto Center
05:38PM 43.0333 -81.1667 304° West 140 161 2,100 1,740 Climbing Toronto Center
05:39PM 43.0500 -81.2000 304° West 140 161 4,400 2,040 Climbing Toronto Center
05:40PM 43.0000 -81.2500 216° Southwest 180 207 6,200 1,980 Climbing Toronto Center
05:41PM 42.9667 -81.2667 200° South 180 207 8,400 1,860 Climbing Toronto Center
05:42PM 42.9333 -81.3167 228° Southwest 160 184 10,000 780 Climbing Toronto Center
05:43PM 42.8833 -81.3667 216° Southwest 180 207 10,000  Level Toronto Center
05:44PM 42.8678 -81.3961 234° Southwest 199 229 10,000 660 Level Cleveland Center
05:45PM 42.8239 -81.4381 215° Southwest 205 236 11,200 900 Climbing Cleveland Center
05:46PM 42.7797 -81.4769 213° Southwest 186 214 11,900 360 Climbing Cleveland Center
05:47PM 42.7358 -81.5131 211° Southwest 186 214 12,000 120 Climbing Cleveland Center
05:48PM 42.6917 -81.5550 215° Southwest 193 222 12,200 60 Climbing Cleveland Center
05:49PM 42.6453 -81.5964 213° Southwest 193 222 12,200  Level Cleveland Center
05:50PM 42.5992 -81.6353 212° Southwest 193 222 12,200  Level Cleveland Center
05:51PM 42.5528 -81.6794 215° Southwest 193 222 12,200  Level Cleveland Center
05:52PM 42.5047 -81.7181 211° Southwest 193 222 12,200  Level Cleveland Center
05:53PM 42.4583 -81.7594 213° Southwest 193 222 12,300  Climbing Cleveland Center
05:54PM 42.4100 -81.8064 216° Southwest 206 237 12,200 -60 Descending Cleveland Center
05:55PM 42.3617 -81.8475 212° Southwest 206 237 12,200 -60 Level Cleveland Center
05:56PM 42.3172 -81.8861 213° Southwest 211 243 12,100 -60 Descending Cleveland Center
05:57PM 42.2669 -81.9272 211° Southwest 217 250 12,100 -240 Level Cleveland Center
05:58PM 42.2183 -81.9708 214° Southwest 217 250 11,700 -600 Descending Cleveland Center
05:59PM 42.1656 -82.0203 215° Southwest 223 257 11,000 -780 Descending Cleveland Center
06:00PM 42.1108 -82.0639 211° Southwest 229 264 10,200 -840 Descending Cleveland Center
06:01PM 42.0814 -82.0967 220° Southwest 233 268 9,800 -840 Descending Cleveland Center
06:01PM 42.0475 -82.1239 211° Southwest 234 269 9,300 -900 Descending Cleveland Center
06:02PM 42.0053 -82.1619 214° Southwest 234 269 8,500 -840 Descending Cleveland Center
06:03PM 41.9444 -82.1994 205° Southwest 239 275 7,700 -840 Descending Cleveland Center
06:04PM 41.8586 -82.2169 189° South 253 291 6,800 -840 Descending Cleveland Center
06:05PM 41.8083 -82.2294 190° South 251 289 6,100 -780 Descending Cleveland Center
06:06PM 41.7372 -82.2472 191° South 257 296 5,400 -840 Descending Cleveland Center
06:07PM 41.6703 -82.2622 190° South 257 296 4,500 -900 Descending Cleveland Center
06:08PM 41.6011 -82.2964 200° South 248 285 3,700 -780 Descending Cleveland Center
06:09PM 41.5525 -82.3478 218° Southwest 234 269 3,000 -360 Descending Cleveland Center
06:10PM 41.5058 -82.3964 218° Southwest 222 255 3,000  Level Cleveland Center
06:11PM 41.4528 -82.4558 220° Southwest 204 235 3,000 -60 Level Cleveland Center
06:12PM 41.4308 -82.5136 243° Southwest 169 194 2,900 -420 Descending Cleveland Center
06:13PM 41.4322 -82.5550 273° West 129 148 2,200 -780 Descending Cleveland Center
06:15PM 41.4333 -82.6500 234° Southwest  Level FlightAware Approximate
06:22PM 41.4334 -82.6523 234° Southwest  Level Estimated
06:23PM 41.4333 -82.6500 234° Southwest  Level FlightAware Approximate
06:24PM 41.4334 -82.6523 234° Southwest  Level Estimated